createdAt,value
2018-08-04T00:00:22.868Z,54.33
2018-08-04T00:02:52.276Z,36.65
2018-08-04T00:05:21.026Z,47.48
2018-08-04T00:07:49.760Z,72.65
2018-08-04T00:10:21.037Z,54.80
2018-08-04T00:12:51.245Z,41.73
2018-08-04T00:15:24.001Z,36.48
2018-08-04T00:17:52.845Z,36.50
2018-08-04T00:20:21.727Z,57.13
2018-08-04T00:22:51.592Z,66.97
2018-08-04T00:25:20.366Z,72.82
2018-08-04T00:27:49.064Z,50.28
2018-08-04T00:30:17.865Z,58.28
2018-08-04T00:32:46.565Z,87.22
2018-08-04T00:35:15.325Z,35.58
2018-08-04T00:37:44.149Z,41.40
2018-08-04T00:40:14.107Z,25.08
2018-08-04T00:42:43.109Z,36.60
2018-08-04T00:45:13.014Z,40.52
2018-08-04T00:47:41.872Z,44.63
2018-08-04T00:50:11.052Z,54.53
2018-08-04T00:52:39.853Z,41.30
2018-08-04T00:55:08.890Z,52.10
2018-08-04T00:57:37.629Z,59.03
2018-08-04T01:00:07.532Z,96.73
2018-08-04T01:02:36.348Z,78.55
2018-08-04T01:05:05.243Z,58.00
2018-08-04T01:07:34.973Z,59.85
2018-08-04T01:10:05.233Z,66.92
2018-08-04T01:12:34.428Z,77.40
2018-08-04T01:15:03.137Z,97.70
2018-08-04T01:17:32.109Z,95.80
2018-08-04T01:20:05.503Z,93.33
2018-08-04T01:22:36.423Z,112.70
2018-08-04T01:25:06.397Z,98.50
2018-08-04T01:27:35.162Z,107.43
2018-08-04T01:30:04.984Z,48.23
2018-08-04T01:32:33.819Z,60.88
2018-08-04T01:35:03.657Z,65.55
2018-08-04T01:37:32.617Z,102.25
2018-08-04T01:40:03.680Z,69.73
2018-08-04T01:42:32.544Z,48.47
2018-08-04T01:45:01.308Z,83.17
2018-08-04T01:47:30.000Z,145.47
2018-08-04T01:49:59.624Z,143.97
2018-08-04T01:52:28.386Z,35.43
2018-08-04T01:54:57.205Z,143.13
2018-08-04T01:57:25.995Z,205.40
2018-08-04T01:59:55.717Z,179.78
2018-08-04T02:02:24.554Z,100.00
2018-08-04T02:04:57.096Z,120.30
2018-08-04T02:07:28.886Z,122.13
2018-08-04T02:09:57.646Z,115.77
2018-08-04T02:12:27.554Z,183.40
2018-08-04T02:14:56.306Z,176.68
2018-08-04T02:17:25.033Z,170.05
2018-08-04T02:19:53.850Z,160.63
2018-08-04T02:22:22.163Z,209.27
2018-08-04T02:24:50.860Z,155.55
2018-08-04T02:27:19.743Z,186.03
2018-08-04T02:29:48.458Z,193.37
2018-08-04T02:32:17.114Z,64.32
2018-08-04T02:34:45.874Z,49.45
2018-08-04T02:37:14.603Z,48.68
2018-08-04T02:39:43.263Z,23.42
2018-08-04T02:42:12.043Z,27.73
2018-08-04T02:44:40.757Z,37.53
2018-08-04T02:47:09.535Z,37.40
2018-08-04T02:49:39.246Z,62.38
2018-08-04T02:52:08.006Z,37.60
2018-08-04T02:54:37.690Z,31.90
2018-08-04T02:57:06.478Z,43.23
2018-08-04T02:59:36.189Z,45.40
2018-08-04T03:02:05.874Z,175.20
2018-08-04T03:04:34.536Z,239.17
2018-08-04T03:07:03.285Z,243.55
2018-08-04T03:09:31.613Z,192.70
2018-08-04T03:12:00.400Z,215.45
2018-08-04T03:14:29.269Z,228.85
2018-08-04T03:16:57.979Z,226.60
2018-08-04T03:19:26.807Z,96.92
2018-08-04T03:21:55.679Z,81.20
2018-08-04T03:24:25.441Z,54.42
2018-08-04T03:26:54.196Z,46.58
2018-08-04T03:29:22.900Z,64.47
2018-08-04T03:31:51.652Z,69.87
2018-08-04T03:34:21.408Z,69.17
2018-08-04T03:36:50.194Z,67.80
2018-08-04T03:39:18.869Z,73.25
2018-08-04T03:41:47.623Z,32.33
2018-08-04T03:44:16.291Z,76.75
2018-08-04T03:46:45.044Z,75.57
2018-08-04T03:49:13.939Z,212.60
2018-08-04T03:51:42.805Z,244.57
2018-08-04T03:54:12.063Z,65.97
2018-08-04T03:56:40.768Z,71.80
2018-08-04T03:59:09.544Z,80.50
2018-08-04T04:01:38.245Z,84.20
2018-08-04T04:04:06.951Z,78.15
2018-08-04T04:06:35.268Z,77.12
2018-08-04T04:09:05.695Z,217.40
2018-08-04T04:11:36.562Z,271.75
2018-08-04T04:14:05.314Z,192.72
2018-08-04T04:16:34.122Z,283.70
2018-08-04T04:19:02.837Z,220.22
2018-08-04T04:21:31.551Z,85.80
2018-08-04T04:24:01.383Z,79.53
2018-08-04T04:26:30.046Z,66.95
2018-08-04T04:28:58.786Z,65.97
2018-08-04T04:31:27.467Z,80.90
2018-08-04T04:33:56.107Z,57.13
2018-08-04T04:36:24.780Z,78.07
2018-08-04T04:38:53.453Z,70.60
2018-08-04T04:41:22.226Z,155.95
2018-08-04T04:43:51.951Z,214.02
2018-08-04T04:46:20.220Z,221.45
2018-08-04T04:48:49.191Z,160.63
2018-08-04T04:51:17.874Z,186.97
2018-08-04T04:53:46.606Z,95.38
2018-08-04T04:56:15.348Z,118.80
2018-08-04T04:58:45.075Z,216.82
2018-08-04T05:01:13.705Z,181.63
2018-08-04T05:03:42.417Z,168.07
2018-08-04T05:06:11.126Z,181.10
2018-08-04T05:08:39.922Z,181.55
2018-08-04T05:11:08.564Z,132.60
2018-08-04T05:13:37.182Z,171.77
2018-08-04T05:16:05.872Z,146.22
2018-08-04T05:18:35.547Z,20.75
2018-08-04T05:21:04.327Z,71.57
2018-08-04T05:23:33.021Z,133.55
2018-08-04T05:26:01.828Z,121.50
2018-08-04T05:28:30.535Z,155.93
2018-08-04T05:30:59.196Z,165.97
2018-08-04T05:33:28.952Z,206.10
2018-08-04T05:35:57.695Z,236.40
2018-08-04T05:38:27.347Z,231.50
2018-08-04T05:40:56.014Z,229.13
2018-08-04T05:43:24.884Z,96.92
2018-08-04T05:45:53.487Z,173.00
2018-08-04T05:48:22.253Z,201.70
2018-08-04T05:50:50.934Z,238.40
2018-08-04T05:53:19.724Z,228.18
2018-08-04T05:55:48.424Z,237.97
2018-08-04T05:58:17.678Z,266.60
2018-08-04T06:00:46.439Z,209.22
2018-08-04T06:03:15.221Z,248.22
2018-08-04T06:05:43.831Z,220.78
2018-08-04T06:08:12.569Z,266.80
2018-08-04T06:10:42.248Z,274.27
2018-08-04T06:13:11.018Z,248.68
2018-08-04T06:15:39.639Z,294.60
2018-08-04T06:18:09.424Z,284.90
2018-08-04T06:20:38.109Z,280.60
2018-08-04T06:23:06.962Z,292.15
2018-08-04T06:25:35.593Z,286.10
2018-08-04T06:28:05.064Z,292.92
2018-08-04T06:30:33.802Z,284.90
2018-08-04T06:33:02.492Z,268.43
2018-08-04T06:35:31.150Z,275.00
2018-08-04T06:37:59.958Z,271.63
2018-08-04T06:40:28.600Z,272.27
2018-08-04T06:42:57.263Z,79.42
2018-08-04T06:45:26.030Z,148.45
2018-08-04T06:47:54.765Z,190.07
2018-08-04T06:50:23.399Z,153.70
2018-08-04T06:52:53.099Z,190.23
2018-08-04T06:55:21.964Z,172.20
2018-08-04T06:57:50.650Z,205.07
2018-08-04T07:00:19.364Z,212.82
2018-08-04T07:02:48.078Z,146.37
2018-08-04T07:05:16.801Z,209.92
2018-08-04T07:07:46.305Z,167.95
2018-08-04T07:10:15.079Z,171.80
2018-08-04T07:12:43.756Z,167.53
2018-08-04T07:15:12.500Z,156.83
2018-08-04T07:17:42.206Z,163.90
2018-08-04T07:20:10.863Z,196.28
2018-08-04T07:22:39.609Z,180.83
2018-08-04T07:25:08.325Z,239.93
2018-08-04T07:27:37.025Z,222.97
2018-08-04T07:30:12.385Z,257.87
2018-08-04T07:32:42.147Z,200.55
2018-08-04T07:35:10.996Z,235.03
2018-08-04T07:37:40.560Z,279.57
2018-08-04T07:40:09.332Z,295.77
2018-08-04T07:42:38.412Z,334.45
2018-08-04T07:45:07.257Z,286.83
2018-08-04T07:47:36.034Z,264.50
2018-08-04T07:50:04.904Z,250.35
2018-08-04T07:52:33.642Z,246.68
2018-08-04T07:55:02.310Z,236.97
2018-08-04T07:57:30.996Z,202.28
2018-08-04T07:59:59.723Z,244.13
2018-08-04T08:02:27.992Z,146.22
2018-08-04T08:04:56.735Z,185.28
2018-08-04T08:07:26.169Z,168.87
2018-08-04T08:09:55.155Z,189.15
2018-08-04T08:12:24.088Z,160.23
2018-08-04T08:14:52.952Z,269.45
2018-08-04T08:17:22.595Z,261.48
2018-08-04T08:19:51.295Z,269.73
2018-08-04T08:22:20.567Z,283.20
2018-08-04T08:24:49.226Z,256.37
2018-08-04T08:27:17.879Z,270.05
2018-08-04T08:29:46.623Z,228.07
2018-08-04T08:32:15.510Z,192.95
2018-08-04T08:34:44.214Z,277.10
2018-08-04T08:37:12.898Z,272.93
2018-08-04T08:39:41.562Z,254.50
2018-08-04T08:42:10.207Z,196.60
2018-08-04T08:44:38.947Z,223.25
2018-08-04T08:47:07.567Z,234.90
2018-08-04T08:49:36.238Z,308.45
2018-08-04T08:52:04.977Z,296.20
2018-08-04T08:54:34.719Z,309.97
2018-08-04T08:57:04.127Z,320.40
2018-08-04T08:59:32.906Z,268.65
2018-08-04T09:02:01.594Z,279.32
2018-08-04T09:04:30.387Z,288.45
2018-08-04T09:06:59.159Z,312.93
2018-08-04T09:09:28.450Z,321.05
2018-08-04T09:11:57.052Z,309.30
2018-08-04T09:14:27.696Z,299.67
2018-08-04T09:16:56.370Z,285.48
2018-08-04T09:19:24.977Z,291.12
2018-08-04T09:21:53.732Z,278.40
2018-08-04T09:24:22.459Z,324.27
2018-08-04T09:26:51.238Z,312.93
2018-08-04T09:29:20.036Z,342.52
2018-08-04T09:31:49.805Z,330.23
2018-08-04T09:34:18.592Z,336.70
2018-08-04T09:36:47.372Z,355.47
2018-08-04T09:39:16.066Z,354.18
2018-08-04T09:41:44.820Z,366.40
2018-08-04T09:44:13.568Z,315.85
2018-08-04T09:46:42.417Z,382.70
2018-08-04T09:49:11.173Z,372.67
2018-08-04T09:51:39.929Z,376.00
2018-08-04T09:54:08.712Z,405.87
2018-08-04T09:56:37.453Z,324.90
2018-08-04T09:59:07.188Z,325.43
2018-08-04T10:01:36.798Z,384.45
2018-08-04T10:04:06.971Z,409.25
2018-08-04T10:06:35.996Z,380.63
2018-08-04T10:09:09.589Z,285.38
2018-08-04T10:11:39.429Z,323.67
2018-08-04T10:14:09.175Z,399.00
2018-08-04T10:16:37.975Z,406.30
2018-08-04T10:19:06.728Z,382.32
2018-08-04T10:21:35.519Z,340.93
2018-08-04T10:24:04.708Z,390.43
2018-08-04T10:26:34.499Z,347.20
2018-08-04T10:29:06.361Z,367.27
2018-08-04T10:31:35.127Z,358.73
2018-08-04T10:34:03.898Z,358.33
2018-08-04T10:36:32.608Z,364.38
2018-08-04T10:39:01.289Z,342.17
2018-08-04T10:41:30.027Z,347.02
2018-08-04T10:43:58.799Z,256.57
2018-08-04T10:46:27.581Z,311.63
2018-08-04T10:48:56.947Z,363.15
2018-08-04T10:51:25.669Z,370.05
2018-08-04T10:53:55.412Z,288.07
2018-08-04T10:56:24.145Z,280.45
2018-08-04T10:58:52.870Z,306.07
2018-08-04T11:01:22.576Z,300.20
2018-08-04T11:03:51.575Z,322.15
2018-08-04T11:06:21.033Z,340.45
2018-08-04T11:08:49.850Z,335.73
2018-08-04T11:11:18.711Z,351.87
2018-08-04T11:13:47.599Z,302.87
2018-08-04T11:16:16.719Z,295.17
2018-08-04T11:18:45.427Z,312.90
2018-08-04T11:21:14.188Z,355.32
2018-08-04T11:23:42.938Z,325.50
2018-08-04T11:26:11.734Z,291.75
2018-08-04T11:28:41.494Z,302.50
2018-08-04T11:31:10.231Z,306.70
2018-08-04T11:33:38.939Z,291.45
2018-08-04T11:36:08.632Z,328.23
2018-08-04T11:38:37.352Z,319.60
2018-08-04T11:41:07.368Z,309.45
2018-08-04T11:43:36.044Z,315.95
2018-08-04T11:46:04.729Z,313.62
2018-08-04T11:48:33.535Z,351.60
2018-08-04T11:51:02.207Z,336.65
2018-08-04T11:53:30.996Z,304.77
2018-08-04T11:55:59.668Z,321.07
2018-08-04T11:58:28.525Z,313.35
2018-08-04T12:00:57.371Z,289.63
2018-08-04T12:03:26.122Z,261.95
2018-08-04T12:05:54.854Z,263.70
2018-08-04T12:08:23.548Z,289.77
2018-08-04T12:10:52.984Z,286.12
2018-08-04T12:13:21.715Z,292.98
2018-08-04T12:15:50.457Z,323.57
2018-08-04T12:18:19.251Z,338.30
2018-08-04T12:20:47.939Z,317.63
2018-08-04T12:23:16.728Z,321.57
2018-08-04T12:25:45.456Z,345.23
2018-08-04T12:28:14.184Z,241.60
2018-08-04T12:30:42.946Z,230.07
2018-08-04T12:33:11.693Z,286.30
2018-08-04T12:35:40.373Z,288.48
2018-08-04T12:38:09.141Z,312.95
2018-08-04T12:40:38.633Z,259.50
2018-08-04T12:43:07.532Z,314.17
2018-08-04T12:45:39.305Z,281.30
2018-08-04T12:48:08.054Z,293.82
2018-08-04T12:50:36.782Z,289.90
2018-08-04T12:53:05.896Z,275.98
2018-08-04T12:55:34.593Z,306.57
2018-08-04T12:58:05.085Z,332.30
2018-08-04T13:00:39.271Z,340.60
2018-08-04T13:03:07.999Z,277.98
2018-08-04T13:05:38.080Z,271.62
2018-08-04T13:08:06.819Z,276.92
2018-08-04T13:10:35.546Z,131.78
2018-08-04T13:13:04.230Z,107.90
2018-08-04T13:15:32.933Z,252.05
2018-08-04T13:18:01.641Z,232.90
2018-08-04T13:20:32.345Z,254.95
2018-08-04T13:23:01.280Z,284.75
2018-08-04T13:25:30.039Z,327.48
2018-08-04T13:27:58.756Z,316.90
2018-08-04T13:30:27.490Z,333.75
2018-08-04T13:32:56.253Z,318.05
2018-08-04T13:35:25.256Z,305.07
2018-08-04T13:37:54.069Z,300.18
2018-08-04T13:40:24.799Z,299.13
2018-08-04T13:42:53.586Z,372.00
2018-08-04T13:45:23.291Z,325.48
2018-08-04T13:47:52.016Z,357.45
2018-08-04T13:50:20.815Z,295.63
2018-08-04T13:52:49.681Z,303.95
2018-08-04T13:55:18.375Z,301.77
2018-08-04T13:57:47.208Z,354.25
2018-08-04T14:00:16.096Z,340.50
2018-08-04T14:02:44.947Z,346.37
2018-08-04T14:05:13.720Z,393.17
2018-08-04T14:07:42.662Z,388.68
2018-08-04T14:10:11.416Z,395.67
2018-08-04T14:12:40.176Z,378.02
2018-08-04T14:15:08.972Z,342.83
2018-08-04T14:17:37.779Z,394.02
2018-08-04T14:20:06.557Z,389.90
2018-08-04T14:22:35.294Z,262.77
2018-08-04T14:25:06.028Z,364.20
2018-08-04T14:27:34.706Z,389.20
2018-08-04T14:30:03.448Z,395.23
2018-08-04T14:32:34.816Z,408.20
2018-08-04T14:35:03.692Z,446.22
2018-08-04T14:37:32.551Z,398.68
2018-08-04T14:40:02.287Z,342.62
2018-08-04T14:42:31.987Z,329.93
2018-08-04T14:45:00.715Z,367.77
2018-08-04T14:47:30.369Z,311.35
2018-08-04T14:49:59.090Z,332.10
2018-08-04T14:52:27.838Z,345.82
2018-08-04T14:54:56.593Z,335.80
2018-08-04T14:57:26.301Z,336.25
2018-08-04T14:59:55.009Z,349.92
2018-08-04T15:02:23.755Z,348.02
2018-08-04T15:04:52.490Z,357.75
2018-08-04T15:07:21.144Z,329.85
2018-08-04T15:09:50.104Z,334.43
2018-08-04T15:12:18.870Z,337.90
2018-08-04T15:14:47.566Z,334.23
2018-08-04T15:17:16.261Z,356.23
2018-08-04T15:19:45.047Z,343.63
2018-08-04T15:22:14.301Z,335.90
2018-08-04T15:24:43.029Z,325.03
2018-08-04T15:27:11.729Z,248.35
2018-08-04T15:29:40.523Z,296.37
2018-08-04T15:32:09.230Z,277.30
2018-08-04T15:34:37.964Z,297.85
2018-08-04T15:37:07.699Z,293.97
2018-08-04T15:39:36.579Z,254.87
2018-08-04T15:42:06.566Z,259.57
2018-08-04T15:44:35.287Z,324.52
2018-08-04T15:47:03.985Z,302.65
2018-08-04T15:49:32.772Z,327.93
2018-08-04T15:52:01.450Z,349.02
2018-08-04T15:54:30.192Z,359.87
2018-08-04T15:56:58.942Z,359.53
2018-08-04T15:59:29.708Z,335.68
2018-08-04T16:01:58.406Z,340.85
2018-08-04T16:04:26.845Z,325.13
2018-08-04T16:06:56.481Z,338.62
2018-08-04T16:09:25.189Z,332.40
2018-08-04T16:11:53.891Z,335.33
2018-08-04T16:14:23.544Z,325.73
2018-08-04T16:16:52.380Z,328.10
2018-08-04T16:19:21.028Z,281.63
2018-08-04T16:21:53.625Z,283.95
2018-08-04T16:24:22.465Z,285.68
2018-08-04T16:26:51.200Z,269.50
2018-08-04T16:29:19.865Z,247.02
2018-08-04T16:31:48.688Z,200.82
2018-08-04T16:34:17.404Z,287.10
2018-08-04T16:36:46.176Z,250.87
2018-08-04T16:39:14.953Z,83.87
2018-08-04T16:41:43.711Z,233.00
2018-08-04T16:44:12.344Z,324.50
2018-08-04T16:46:42.044Z,255.15
2018-08-04T16:49:11.805Z,256.57
2018-08-04T16:51:40.601Z,250.72
2018-08-04T16:54:10.275Z,265.73
2018-08-04T16:56:38.950Z,224.52
2018-08-04T16:59:08.847Z,292.10
2018-08-04T17:01:37.706Z,297.90
2018-08-04T17:04:06.557Z,291.88
2018-08-04T17:06:35.226Z,278.37
2018-08-04T17:09:10.207Z,222.65
2018-08-04T17:11:38.854Z,262.60
2018-08-04T17:14:08.148Z,248.57
2018-08-04T17:16:36.524Z,281.60
2018-08-04T17:19:05.248Z,276.88
2018-08-04T17:21:34.061Z,285.35
2018-08-04T17:24:02.729Z,334.67
2018-08-04T17:26:31.463Z,294.48
2018-08-04T17:29:00.133Z,305.43
2018-08-04T17:31:28.890Z,323.68
2018-08-04T17:33:58.653Z,316.60
2018-08-04T17:36:27.398Z,328.53
2018-08-04T17:38:56.143Z,325.65
2018-08-04T17:41:24.948Z,328.77
2018-08-04T17:43:54.180Z,226.37
2018-08-04T17:46:22.976Z,295.37
2018-08-04T17:48:51.603Z,336.95
2018-08-04T17:51:20.777Z,314.30
2018-08-04T17:53:49.672Z,296.80
2018-08-04T17:56:18.323Z,284.27
2018-08-04T17:58:47.021Z,273.45
2018-08-04T18:01:16.772Z,311.00
2018-08-04T18:03:46.082Z,300.85
2018-08-04T18:06:15.423Z,296.87
2018-08-04T18:08:44.133Z,268.02
2018-08-04T18:11:12.867Z,294.57
2018-08-04T18:13:41.627Z,330.30
2018-08-04T18:16:10.310Z,329.45
2018-08-04T18:18:38.990Z,317.90
2018-08-04T18:21:08.524Z,262.60
2018-08-04T18:23:37.310Z,304.63
2018-08-04T18:26:07.078Z,317.27
2018-08-04T18:28:35.757Z,316.68
2018-08-04T18:31:05.591Z,307.00
2018-08-04T18:33:34.462Z,326.15
2018-08-04T18:36:03.169Z,319.27
2018-08-04T18:38:31.938Z,322.10
2018-08-04T18:41:01.346Z,328.45
2018-08-04T18:43:30.059Z,378.90
2018-08-04T18:45:58.869Z,373.73
2018-08-04T18:48:27.570Z,361.70
2018-08-04T18:50:56.375Z,323.73
2018-08-04T18:53:25.198Z,336.50
2018-08-04T18:55:54.004Z,378.37
2018-08-04T18:58:22.721Z,406.57
2018-08-04T19:00:51.493Z,411.03
2018-08-04T19:03:20.250Z,426.50
2018-08-04T19:05:48.896Z,425.47
2018-08-04T19:08:17.625Z,422.43
2018-08-04T19:10:47.194Z,390.10
2018-08-04T19:13:15.951Z,420.23
2018-08-04T19:15:44.735Z,407.23
2018-08-04T19:18:13.964Z,416.32
2018-08-04T19:20:42.754Z,411.77
2018-08-04T19:23:11.514Z,413.70
2018-08-04T19:25:44.159Z,421.33
2018-08-04T19:28:12.928Z,394.32
2018-08-04T19:30:41.643Z,418.15
2018-08-04T19:33:11.455Z,379.48
2018-08-04T19:35:40.189Z,398.25
2018-08-04T19:38:08.892Z,399.60
2018-08-04T19:40:39.755Z,417.87
2018-08-04T19:43:08.466Z,430.40
2018-08-04T19:45:37.104Z,442.70
2018-08-04T19:48:06.823Z,431.82
2018-08-04T19:50:35.524Z,429.00
2018-08-04T19:53:04.211Z,442.20
2018-08-04T19:55:35.228Z,445.73
2018-08-04T19:58:03.992Z,425.75
2018-08-04T20:00:32.752Z,372.60
2018-08-04T20:03:01.579Z,390.43
2018-08-04T20:05:30.342Z,402.75
2018-08-04T20:07:59.062Z,414.00
2018-08-04T20:10:29.759Z,391.98
2018-08-04T20:12:58.851Z,411.55
2018-08-04T20:15:27.670Z,412.85
2018-08-04T20:17:56.352Z,404.98
2018-08-04T20:20:25.720Z,430.17
2018-08-04T20:22:54.411Z,412.07
2018-08-04T20:25:23.199Z,379.98
2018-08-04T20:27:52.169Z,361.07
2018-08-04T20:30:20.921Z,375.43
2018-08-04T20:32:50.316Z,404.87
2018-08-04T20:35:19.166Z,379.87
2018-08-04T20:37:48.966Z,308.45
2018-08-04T20:40:18.421Z,351.57
2018-08-04T20:42:47.489Z,385.52
2018-08-04T20:45:16.343Z,373.40
2018-08-04T20:47:46.009Z,390.10
2018-08-04T20:50:14.876Z,375.25
2018-08-04T20:52:43.553Z,397.87
2018-08-04T20:55:11.905Z,377.27
2018-08-04T20:57:41.720Z,301.35
2018-08-04T21:00:10.379Z,336.23
2018-08-04T21:02:39.343Z,370.00
2018-08-04T21:05:09.524Z,421.25
2018-08-04T21:07:39.010Z,423.97
2018-08-04T21:10:08.703Z,427.32
2018-08-04T21:12:37.462Z,431.32
2018-08-04T21:15:06.303Z,453.23
2018-08-04T21:17:35.165Z,425.95
2018-08-04T21:20:04.157Z,435.55
2018-08-04T21:22:33.127Z,448.67
2018-08-04T21:25:01.847Z,434.40
2018-08-04T21:27:30.704Z,408.65
2018-08-04T21:29:59.530Z,364.82
2018-08-04T21:32:28.187Z,361.23
2018-08-04T21:34:57.925Z,404.38
2018-08-04T21:37:27.631Z,397.40
2018-08-04T21:39:56.385Z,284.75
2018-08-04T21:42:25.337Z,336.92
2018-08-04T21:44:54.134Z,380.57
2018-08-04T21:47:22.802Z,354.20
2018-08-04T21:49:51.676Z,393.65
2018-08-04T21:52:20.435Z,412.05
2018-08-04T21:54:49.869Z,415.88
2018-08-04T21:57:18.545Z,414.05
2018-08-04T21:59:47.297Z,380.27
2018-08-04T22:02:16.183Z,426.65
2018-08-04T22:04:45.093Z,390.70
2018-08-04T22:07:50.566Z,417.90
2018-08-04T22:10:19.863Z,423.85
2018-08-04T22:12:49.292Z,453.05
2018-08-04T22:15:18.039Z,434.10
2018-08-04T22:17:46.841Z,429.38
2018-08-04T22:20:17.917Z,429.42
2018-08-04T22:22:46.786Z,414.78
2018-08-04T22:25:17.859Z,426.77
2018-08-04T22:27:46.762Z,452.17
2018-08-04T22:30:17.965Z,420.15
2018-08-04T22:32:47.438Z,450.30
2018-08-04T22:35:16.251Z,452.05
2018-08-04T22:37:46.030Z,438.93
2018-08-04T22:40:15.589Z,443.27
2018-08-04T22:42:44.650Z,415.88
2018-08-04T22:46:10.191Z,439.65
2018-08-04T22:48:40.400Z,415.82
2018-08-04T22:51:09.250Z,442.55
2018-08-04T22:53:38.300Z,419.28
2018-08-04T22:56:07.287Z,447.55
2018-08-04T22:58:36.226Z,422.63
2018-08-04T23:01:05.342Z,412.23
2018-08-04T23:03:34.105Z,437.38
2018-08-04T23:06:02.993Z,448.00
2018-08-04T23:08:32.393Z,435.95
2018-08-04T23:11:01.274Z,401.40
2018-08-04T23:13:33.674Z,446.53
2018-08-04T23:16:06.456Z,347.17
2018-08-04T23:18:35.206Z,388.10
2018-08-04T23:21:04.103Z,354.40
2018-08-04T23:23:32.955Z,399.58
2018-08-04T23:26:01.689Z,387.77
2018-08-04T23:28:30.536Z,392.90
2018-08-04T23:30:59.305Z,425.27
2018-08-04T23:33:28.312Z,427.13
2018-08-04T23:35:57.538Z,353.37
2018-08-04T23:38:26.503Z,396.90
2018-08-04T23:40:55.253Z,432.52
2018-08-04T23:43:25.009Z,400.12
2018-08-04T23:45:54.707Z,433.50
2018-08-04T23:48:23.465Z,454.25
2018-08-04T23:50:52.192Z,466.20
2018-08-04T23:53:20.918Z,466.92
2018-08-04T23:55:49.837Z,445.45
2018-08-04T23:58:18.658Z,490.60
